createdAt,value
2018-04-24T00:00:52.297Z,17.90
2018-04-24T00:03:28.047Z,17.90
2018-04-24T00:06:03.083Z,17.90
2018-04-24T00:08:37.859Z,17.80
2018-04-24T00:11:12.886Z,17.70
2018-04-24T00:13:47.601Z,17.70
2018-04-24T00:16:21.948Z,17.70
2018-04-24T00:18:56.305Z,17.70
2018-04-24T00:21:31.518Z,17.70
2018-04-24T00:24:05.779Z,17.70
2018-04-24T00:26:40.170Z,17.70
2018-04-24T00:29:14.927Z,17.70
2018-04-24T00:31:49.314Z,17.60
2018-04-24T00:34:24.401Z,17.60
2018-04-24T00:36:58.588Z,17.60
2018-04-24T00:39:33.604Z,17.60
2018-04-24T00:42:08.013Z,17.60
2018-04-24T00:44:43.102Z,17.40
2018-04-24T00:47:17.463Z,17.40
2018-04-24T00:49:51.896Z,17.30
2018-04-24T00:52:26.174Z,17.30
2018-04-24T00:55:00.625Z,17.30
2018-04-24T00:57:34.863Z,17.30
2018-04-24T01:00:09.253Z,17.30
2018-04-24T01:02:43.552Z,17.20
2018-04-24T01:05:17.906Z,17.20
2018-04-24T01:07:52.289Z,17.10
2018-04-24T01:10:27.470Z,17.10
2018-04-24T01:13:02.067Z,17.10
2018-04-24T01:15:36.468Z,17.00
2018-04-24T01:18:10.706Z,17.10
2018-04-24T01:20:45.775Z,17.10
2018-04-24T01:23:20.012Z,17.10
2018-04-24T01:25:54.474Z,17.10
2018-04-24T01:28:28.859Z,17.00
2018-04-24T01:31:03.509Z,16.90
2018-04-24T01:33:37.806Z,16.90
2018-04-24T01:36:12.138Z,16.90
2018-04-24T01:38:46.422Z,16.80
2018-04-24T01:41:21.718Z,16.50
2018-04-24T01:43:56.085Z,16.50
2018-04-24T01:46:30.519Z,16.50
2018-04-24T01:49:04.784Z,16.40
2018-04-24T01:51:39.804Z,16.40
2018-04-24T01:54:14.148Z,16.50
2018-04-24T01:56:48.939Z,16.50
2018-04-24T01:59:23.858Z,16.40
2018-04-24T02:01:58.289Z,16.40
2018-04-24T02:04:32.513Z,16.30
2018-04-24T02:07:06.797Z,16.30
2018-04-24T02:09:41.552Z,16.30
2018-04-24T02:12:15.839Z,16.30
2018-04-24T02:14:50.469Z,16.30
2018-04-24T02:17:24.813Z,16.20
2018-04-24T02:20:00.077Z,16.10
2018-04-24T02:22:34.372Z,16.10
2018-04-24T02:25:09.459Z,15.90
2018-04-24T02:27:43.618Z,15.90
2018-04-24T02:30:18.044Z,15.90
2018-04-24T02:32:53.157Z,15.80
2018-04-24T02:35:27.811Z,15.80
2018-04-24T02:38:02.276Z,15.80
2018-04-24T02:40:37.396Z,15.70
2018-04-24T02:43:11.641Z,15.80
2018-04-24T02:45:46.348Z,15.60
2018-04-24T02:48:21.632Z,15.40
2018-04-24T02:50:56.133Z,15.40
2018-04-24T02:53:31.053Z,15.40
2018-04-24T02:56:05.688Z,15.40
2018-04-24T02:58:40.080Z,15.40
2018-04-24T03:01:14.298Z,15.40
2018-04-24T03:03:48.595Z,15.40
2018-04-24T03:06:23.119Z,15.50
2018-04-24T03:08:57.567Z,15.60
2018-04-24T03:11:32.036Z,15.70
2018-04-24T03:14:06.260Z,15.60
2018-04-24T03:16:40.864Z,15.70
2018-04-24T03:19:15.227Z,15.70
2018-04-24T03:21:50.265Z,15.60
2018-04-24T03:24:24.787Z,15.60
2018-04-24T03:27:00.135Z,15.40
2018-04-24T03:29:35.185Z,15.30
2018-04-24T03:32:10.345Z,15.10
2018-04-24T03:34:44.653Z,15.00
2018-04-24T03:37:19.260Z,14.90
2018-04-24T03:39:53.582Z,14.80
2018-04-24T03:42:28.905Z,14.80
2018-04-24T03:45:04.075Z,14.80
2018-04-24T03:47:38.461Z,14.80
2018-04-24T03:50:13.639Z,14.90
2018-04-24T03:52:48.041Z,14.90
2018-04-24T03:55:22.282Z,14.90
2018-04-24T03:57:57.048Z,14.90
2018-04-24T04:00:31.370Z,14.90
2018-04-24T04:03:06.656Z,15.00
2018-04-24T04:05:41.007Z,15.00
2018-04-24T04:08:15.743Z,15.00
2018-04-24T04:10:50.192Z,15.00
2018-04-24T04:13:24.467Z,15.00
2018-04-24T04:15:59.455Z,14.90
2018-04-24T04:18:45.616Z,14.90
2018-04-24T04:21:31.943Z,15.00
2018-04-24T04:24:18.960Z,15.00
2018-04-24T04:26:54.009Z,15.10
2018-04-24T04:29:28.788Z,15.00
2018-04-24T04:32:03.138Z,15.10
2018-04-24T04:34:37.554Z,15.00
2018-04-24T04:37:12.104Z,15.00
2018-04-24T04:39:46.339Z,15.10
2018-04-24T04:42:20.596Z,15.10
2018-04-24T04:44:54.986Z,15.30
2018-04-24T04:47:29.220Z,15.30
2018-04-24T04:50:03.619Z,15.40
2018-04-24T04:52:37.837Z,15.40
2018-04-24T04:55:12.856Z,15.30
2018-04-24T04:57:47.303Z,15.30
2018-04-24T05:00:21.700Z,15.40
2018-04-24T05:02:56.328Z,15.30
2018-04-24T05:05:30.711Z,15.30
2018-04-24T05:08:05.423Z,15.30
2018-04-24T05:10:39.809Z,15.40
2018-04-24T05:13:14.892Z,15.60
2018-04-24T05:15:50.247Z,15.70
2018-04-24T05:18:28.866Z,15.60
2018-04-24T05:21:04.232Z,15.70
2018-04-24T05:23:38.415Z,15.80
2018-04-24T05:26:12.771Z,15.80
2018-04-24T05:28:47.029Z,15.80
2018-04-24T05:31:21.276Z,15.90
2018-04-24T05:33:55.578Z,15.90
2018-04-24T05:36:30.857Z,16.10
2018-04-24T05:39:06.294Z,16.10
2018-04-24T05:41:41.219Z,16.20
2018-04-24T05:44:16.666Z,16.30
2018-04-24T05:46:50.880Z,16.30
2018-04-24T05:49:25.567Z,16.40
2018-04-24T05:51:59.919Z,16.50
2018-04-24T05:54:34.603Z,16.60
2018-04-24T05:57:08.977Z,16.60
2018-04-24T05:59:43.607Z,16.70
2018-04-24T06:02:18.055Z,16.80
2018-04-24T06:04:53.371Z,17.00
2018-04-24T06:07:27.580Z,17.00
2018-04-24T06:10:02.083Z,17.20
2018-04-24T06:12:36.435Z,17.20
2018-04-24T06:15:10.832Z,17.10
2018-04-24T06:17:45.037Z,17.10
2018-04-24T06:20:20.492Z,17.30
2018-04-24T06:22:54.933Z,17.20
2018-04-24T06:25:30.236Z,17.30
2018-04-24T06:28:04.481Z,17.30
2018-04-24T06:30:39.588Z,17.50
2018-04-24T06:33:17.255Z,17.60
2018-04-24T06:35:51.542Z,17.60
2018-04-24T06:38:26.577Z,17.80
2018-04-24T06:41:00.933Z,17.80
2018-04-24T06:43:35.373Z,17.90
2018-04-24T06:46:10.022Z,17.90
2018-04-24T06:48:46.119Z,18.10
2018-04-24T06:51:20.550Z,18.10
2018-04-24T06:53:54.988Z,18.30
2018-04-24T06:56:29.154Z,18.30
2018-04-24T06:59:04.152Z,18.30
2018-04-24T07:01:38.303Z,18.40
2018-04-24T07:04:13.301Z,18.70
2018-04-24T07:06:47.531Z,18.60
2018-04-24T07:09:22.164Z,18.80
2018-04-24T07:11:56.415Z,19.00
2018-04-24T07:14:31.471Z,19.20
2018-04-24T07:17:05.873Z,19.20
2018-04-24T07:19:40.908Z,19.00
2018-04-24T07:22:15.189Z,19.10
2018-04-24T07:24:49.523Z,18.90
2018-04-24T07:27:23.799Z,19.00
2018-04-24T07:29:58.188Z,19.00
2018-04-24T07:32:32.725Z,19.00
2018-04-24T07:35:07.226Z,19.20
2018-04-24T07:37:41.559Z,19.30
2018-04-24T07:40:15.991Z,19.30
2018-04-24T07:42:50.371Z,19.30
2018-04-24T07:45:24.904Z,19.20
2018-04-24T07:47:59.948Z,19.30
2018-04-24T07:50:36.850Z,19.30
2018-04-24T07:53:11.455Z,19.30
2018-04-24T07:55:46.079Z,19.40
2018-04-24T07:58:20.547Z,19.50
2018-04-24T08:00:55.097Z,19.50
2018-04-24T08:03:29.500Z,19.60
2018-04-24T08:06:03.999Z,19.70
2018-04-24T08:08:38.164Z,19.70
2018-04-24T08:11:12.760Z,19.70
2018-04-24T08:13:47.090Z,19.80
2018-04-24T08:16:21.295Z,19.90
2018-04-24T08:18:56.369Z,20.30
2018-04-24T08:21:31.402Z,20.40
2018-04-24T08:24:05.771Z,20.40
2018-04-24T08:26:40.005Z,20.60
2018-04-24T08:29:14.307Z,20.90
2018-04-24T08:31:48.659Z,20.90
2018-04-24T08:34:23.720Z,20.80
2018-04-24T08:37:00.667Z,20.70
2018-04-24T08:39:35.236Z,20.70
2018-04-24T08:42:09.743Z,20.70
2018-04-24T08:44:44.115Z,20.70
2018-04-24T08:47:18.315Z,20.70
2018-04-24T08:49:52.622Z,20.80
2018-04-24T08:52:27.367Z,20.90
2018-04-24T08:55:01.803Z,21.00
2018-04-24T08:57:36.232Z,20.90
2018-04-24T09:00:11.308Z,20.80
2018-04-24T09:02:45.676Z,21.00
2018-04-24T09:05:20.995Z,21.40
2018-04-24T09:07:55.840Z,21.40
2018-04-24T09:10:30.871Z,21.30
2018-04-24T09:13:05.679Z,21.20
2018-04-24T09:15:39.957Z,21.30
2018-04-24T09:18:14.368Z,21.30
2018-04-24T09:20:48.639Z,21.20
2018-04-24T09:23:23.024Z,21.30
2018-04-24T09:25:57.493Z,21.10
2018-04-24T09:28:31.730Z,21.00
2018-04-24T09:31:06.067Z,21.20
2018-04-24T09:33:40.643Z,21.20
2018-04-24T09:36:14.948Z,21.20
2018-04-24T09:38:49.435Z,21.10
2018-04-24T09:41:23.640Z,21.30
2018-04-24T09:43:57.914Z,21.50
2018-04-24T09:46:32.228Z,21.50
2018-04-24T09:49:07.263Z,21.60
2018-04-24T09:51:41.853Z,21.60
2018-04-24T09:54:16.289Z,21.80
2018-04-24T09:56:51.259Z,21.80
2018-04-24T09:59:25.521Z,21.90
2018-04-24T10:01:59.945Z,22.10
2018-04-24T10:04:34.346Z,22.20
2018-04-24T10:07:08.668Z,22.30
2018-04-24T10:09:42.923Z,22.30
2018-04-24T10:12:17.263Z,22.20
2018-04-24T10:14:51.601Z,22.10
2018-04-24T10:17:25.971Z,22.00
2018-04-24T10:20:00.621Z,21.90
2018-04-24T10:22:34.999Z,22.00
2018-04-24T10:25:09.328Z,22.10
2018-04-24T10:27:43.638Z,22.30
2018-04-24T10:30:18.571Z,22.40
2018-04-24T10:32:53.597Z,22.70
2018-04-24T10:35:27.980Z,22.60
2018-04-24T10:38:02.317Z,22.90
2018-04-24T10:40:36.631Z,22.80
2018-04-24T10:43:11.047Z,22.80
2018-04-24T10:45:45.391Z,23.00
2018-04-24T10:48:19.907Z,23.00
2018-04-24T10:50:55.248Z,23.00
2018-04-24T10:53:29.545Z,23.00
2018-04-24T10:56:04.147Z,23.00
2018-04-24T10:58:38.359Z,23.20
2018-04-24T11:01:12.924Z,23.30
2018-04-24T11:03:47.330Z,23.20
2018-04-24T11:06:21.868Z,23.10
2018-04-24T11:08:56.880Z,23.20
2018-04-24T11:11:31.310Z,23.10
2018-04-24T11:14:05.662Z,23.10
2018-04-24T11:16:40.059Z,23.00
2018-04-24T11:19:14.311Z,22.80
2018-04-24T11:21:48.816Z,22.80
2018-04-24T11:24:23.205Z,23.00
2018-04-24T11:26:57.526Z,23.20
2018-04-24T11:29:32.650Z,23.30
2018-04-24T11:32:06.915Z,23.20
2018-04-24T11:34:41.167Z,23.20
2018-04-24T11:37:15.623Z,23.20
2018-04-24T11:39:50.617Z,23.20
2018-04-24T11:42:25.296Z,23.30
2018-04-24T11:44:59.633Z,23.40
2018-04-24T11:47:33.960Z,23.60
2018-04-24T11:50:08.346Z,23.70
2018-04-24T11:52:42.965Z,23.50
2018-04-24T11:55:18.119Z,23.60
2018-04-24T11:57:53.231Z,23.50
2018-04-24T12:00:27.633Z,23.50
2018-04-24T12:03:02.101Z,23.50
2018-04-24T12:05:38.093Z,23.50
2018-04-24T12:08:13.027Z,23.60
2018-04-24T12:10:47.297Z,23.70
2018-04-24T12:13:21.565Z,23.90
2018-04-24T12:15:55.837Z,24.00
2018-04-24T12:18:30.468Z,24.10
2018-04-24T12:21:05.924Z,24.30
2018-04-24T12:23:40.984Z,24.40
2018-04-24T12:26:16.167Z,24.40
2018-04-24T12:28:50.576Z,24.30
2018-04-24T12:31:25.547Z,23.80
2018-04-24T12:34:00.236Z,23.80
2018-04-24T12:36:34.523Z,24.00
2018-04-24T12:39:09.017Z,24.00
2018-04-24T12:41:43.327Z,24.10
2018-04-24T12:44:17.581Z,24.00
2018-04-24T12:46:52.557Z,23.90
2018-04-24T12:49:27.017Z,23.70
2018-04-24T12:52:01.206Z,23.70
2018-04-24T12:54:35.417Z,23.70
2018-04-24T12:57:09.833Z,23.70
2018-04-24T12:59:44.224Z,23.70
2018-04-24T13:02:19.208Z,24.00
2018-04-24T13:04:53.486Z,23.90
2018-04-24T13:07:27.747Z,24.20
2018-04-24T13:10:02.307Z,24.30
2018-04-24T13:12:36.555Z,24.30
2018-04-24T13:15:11.011Z,24.40
2018-04-24T13:17:45.593Z,24.50
2018-04-24T13:20:19.907Z,24.60
2018-04-24T13:22:55.383Z,24.60
2018-04-24T13:25:30.467Z,24.70
2018-04-24T13:28:04.670Z,24.70
2018-04-24T13:30:38.923Z,24.80
2018-04-24T13:33:13.514Z,24.70
2018-04-24T13:35:48.471Z,24.50
2018-04-24T13:38:22.822Z,24.50
2018-04-24T13:40:57.844Z,24.80
2018-04-24T13:43:32.360Z,24.80
2018-04-24T13:46:06.776Z,24.90
2018-04-24T13:48:42.484Z,25.00
2018-04-24T13:51:16.819Z,24.90
2018-04-24T13:53:51.465Z,24.70
2018-04-24T13:56:25.901Z,24.80
2018-04-24T13:59:00.690Z,24.70
2018-04-24T14:01:34.827Z,24.60
2018-04-24T14:04:09.143Z,24.60
2018-04-24T14:06:43.680Z,24.70
2018-04-24T14:09:18.102Z,24.80
2018-04-24T14:11:53.021Z,24.70
2018-04-24T14:14:27.467Z,24.70
2018-04-24T14:17:02.600Z,24.70
2018-04-24T14:19:37.003Z,24.60
2018-04-24T14:22:11.258Z,24.70
2018-04-24T14:24:45.965Z,24.90
2018-04-24T14:27:20.506Z,25.00
2018-04-24T14:29:54.958Z,24.90
2018-04-24T14:32:29.912Z,24.80
2018-04-24T14:35:05.673Z,25.00
2018-04-24T14:37:39.891Z,25.00
2018-04-24T14:40:14.322Z,25.10
2018-04-24T14:42:48.730Z,24.80
2018-04-24T14:45:23.126Z,24.60
2018-04-24T14:47:57.488Z,24.40
2018-04-24T14:50:32.569Z,24.20
2018-04-24T14:53:07.361Z,24.10
2018-04-24T14:55:41.962Z,24.20
2018-04-24T14:58:18.056Z,24.20
2018-04-24T15:00:52.562Z,24.30
2018-04-24T15:03:26.936Z,24.10
2018-04-24T15:06:01.628Z,24.00
2018-04-24T15:08:36.687Z,24.00
2018-04-24T15:11:11.120Z,24.00
2018-04-24T15:13:45.502Z,24.10
2018-04-24T15:16:19.819Z,24.20
2018-04-24T15:18:54.118Z,24.20
2018-04-24T15:21:28.484Z,24.20
2018-04-24T15:24:02.871Z,24.30
2018-04-24T15:26:37.412Z,24.10
2018-04-24T15:29:12.442Z,24.10
2018-04-24T15:31:47.054Z,24.10
2018-04-24T15:34:22.103Z,24.00
2018-04-24T15:36:56.263Z,23.90
2018-04-24T15:39:31.224Z,23.90
2018-04-24T15:42:06.339Z,23.90
2018-04-24T15:44:40.658Z,23.90
2018-04-24T15:47:15.255Z,24.00
2018-04-24T15:49:50.231Z,23.90
2018-04-24T15:52:24.459Z,23.80
2018-04-24T15:54:58.876Z,23.70
2018-04-24T15:57:43.777Z,23.70
2018-04-24T16:00:19.370Z,23.80
2018-04-24T16:02:54.679Z,23.60
2018-04-24T16:05:29.539Z,23.40
2018-04-24T16:08:04.520Z,23.60
2018-04-24T16:10:38.936Z,23.60
2018-04-24T16:13:13.206Z,23.60
2018-04-24T16:15:47.634Z,23.60
2018-04-24T16:18:21.877Z,23.70
2018-04-24T16:20:57.221Z,23.70
2018-04-24T16:23:31.668Z,23.70
2018-04-24T16:26:06.067Z,23.70
2018-04-24T16:28:40.452Z,23.70
2018-04-24T16:31:14.746Z,23.80
2018-04-24T16:33:48.967Z,23.80
2018-04-24T16:36:24.471Z,23.60
2018-04-24T16:38:58.953Z,23.70
2018-04-24T16:41:33.173Z,23.80
2018-04-24T16:44:07.527Z,23.80
2018-04-24T16:46:41.952Z,23.80
2018-04-24T16:49:16.671Z,23.80
2018-04-24T16:51:51.896Z,23.70
2018-04-24T16:54:26.566Z,23.70
2018-04-24T16:57:01.567Z,23.60
2018-04-24T16:59:36.101Z,23.60
2018-04-24T17:02:10.501Z,23.60
2018-04-24T17:04:45.431Z,23.40
2018-04-24T17:07:19.988Z,23.40
2018-04-24T17:09:55.378Z,23.50
2018-04-24T17:12:29.730Z,23.50
2018-04-24T17:15:04.383Z,23.50
2018-04-24T17:17:38.934Z,23.60
2018-04-24T17:20:14.332Z,23.60
2018-04-24T17:22:49.678Z,23.60
2018-04-24T17:25:24.993Z,23.50
2018-04-24T17:27:59.620Z,23.50
2018-04-24T17:30:34.463Z,23.50
2018-04-24T17:33:09.207Z,23.40
2018-04-24T17:35:43.602Z,23.30
2018-04-24T17:38:18.643Z,23.40
2018-04-24T17:40:54.557Z,23.00
2018-04-24T17:43:29.529Z,23.00
2018-04-24T17:46:04.103Z,23.00
2018-04-24T17:48:40.258Z,23.00
2018-04-24T17:51:16.797Z,23.00
2018-04-24T17:53:51.968Z,22.90
2018-04-24T17:56:26.189Z,22.80
2018-04-24T17:59:00.424Z,22.80
2018-04-24T18:01:35.107Z,22.70
2018-04-24T18:04:09.418Z,22.70
2018-04-24T18:06:43.622Z,22.60
2018-04-24T18:09:20.251Z,22.50
2018-04-24T18:12:07.282Z,22.60
2018-04-24T18:14:43.757Z,22.30
2018-04-24T18:17:18.595Z,22.10
2018-04-24T18:19:53.623Z,22.00
2018-04-24T18:22:28.281Z,22.00
2018-04-24T18:25:02.595Z,22.00
2018-04-24T18:27:36.996Z,21.90
2018-04-24T18:30:11.416Z,21.90
2018-04-24T18:32:46.073Z,21.80
2018-04-24T18:35:21.172Z,21.40
2018-04-24T18:37:56.844Z,21.20
2018-04-24T18:40:32.325Z,21.10
2018-04-24T18:43:08.350Z,21.00
2018-04-24T18:45:43.643Z,21.00
2018-04-24T18:48:18.851Z,20.90
2018-04-24T18:50:53.299Z,20.80
2018-04-24T18:53:29.230Z,20.60
2018-04-24T18:56:03.458Z,20.80
2018-04-24T18:58:38.371Z,20.60
2018-04-24T19:01:12.774Z,20.60
2018-04-24T19:03:47.201Z,20.70
2018-04-24T19:06:21.419Z,20.60
2018-04-24T19:08:56.496Z,20.50
2018-04-24T19:11:30.859Z,20.50
2018-04-24T19:14:11.489Z,20.40
2018-04-24T19:16:45.659Z,20.40
2018-04-24T19:19:25.771Z,20.40
2018-04-24T19:22:00.705Z,20.10
2018-04-24T19:24:41.243Z,20.00
2018-04-24T19:27:15.418Z,20.10
2018-04-24T19:29:49.790Z,20.00
2018-04-24T19:32:30.556Z,19.90
2018-04-24T19:35:04.737Z,19.90
2018-04-24T19:37:39.804Z,19.80
2018-04-24T19:40:13.844Z,19.80
2018-04-24T19:42:43.043Z,19.60
2018-04-24T19:45:12.215Z,19.50
2018-04-24T19:47:40.501Z,19.50
2018-04-24T19:50:14.525Z,19.50
2018-04-24T19:52:43.685Z,19.30
2018-04-24T19:55:17.560Z,19.30
2018-04-24T19:57:45.857Z,19.10
2018-04-24T20:00:14.168Z,18.80
2018-04-24T20:02:43.300Z,18.70
2018-04-24T20:05:11.585Z,18.70
2018-04-24T20:07:39.959Z,18.40
2018-04-24T20:10:08.288Z,18.30
2018-04-24T20:12:36.608Z,18.30
2018-04-24T20:15:04.928Z,18.40
2018-04-24T20:17:33.223Z,18.30
2018-04-24T20:20:02.284Z,18.40
2018-04-24T20:22:30.596Z,18.30
2018-04-24T20:24:59.664Z,18.50
2018-04-24T20:27:27.960Z,18.40
2018-04-24T20:29:57.063Z,18.40
2018-04-24T20:32:26.228Z,18.40
2018-04-24T20:34:55.214Z,18.40
2018-04-24T20:37:23.536Z,18.40
2018-04-24T20:39:51.840Z,18.30
2018-04-24T20:42:20.154Z,18.20
2018-04-24T20:44:48.464Z,18.10
2018-04-24T20:47:16.762Z,17.90
2018-04-24T20:49:45.099Z,17.70
2018-04-24T20:52:13.415Z,17.70
2018-04-24T20:54:41.733Z,17.70
2018-04-24T20:57:10.012Z,17.80
2018-04-24T20:59:39.088Z,18.00
2018-04-24T21:02:07.392Z,18.00
2018-04-24T21:04:36.451Z,18.10
2018-04-24T21:07:04.758Z,18.10
2018-04-24T21:09:33.809Z,17.80
2018-04-24T21:12:02.204Z,17.80
2018-04-24T21:14:30.492Z,17.70
2018-04-24T21:16:58.813Z,17.60
2018-04-24T21:19:27.169Z,17.60
2018-04-24T21:21:55.449Z,17.60
2018-04-24T21:24:23.741Z,17.60
2018-04-24T21:26:52.052Z,17.70
2018-04-24T21:29:20.387Z,17.60
2018-04-24T21:31:48.673Z,17.70
2018-04-24T21:34:16.994Z,17.80
2018-04-24T21:36:45.283Z,17.70
2018-04-24T21:39:14.353Z,17.60
2018-04-24T21:41:42.647Z,17.60
2018-04-24T21:44:11.704Z,17.40
2018-04-24T21:46:42.031Z,17.40
2018-04-24T21:49:10.330Z,17.40
2018-04-24T21:51:40.096Z,17.20
2018-04-24T21:54:08.397Z,17.20
2018-04-24T21:56:36.671Z,17.10
2018-04-24T21:59:04.971Z,17.10
2018-04-24T22:01:34.220Z,16.80
2018-04-24T22:04:02.504Z,16.80
2018-04-24T22:06:31.073Z,16.80
2018-04-24T22:08:59.371Z,16.90
2018-04-24T22:11:27.647Z,16.90
2018-04-24T22:13:55.951Z,16.90
2018-04-24T22:16:25.516Z,16.80
2018-04-24T22:18:53.811Z,16.80
2018-04-24T22:21:22.900Z,16.80
2018-04-24T22:23:52.835Z,16.90
2018-04-24T22:26:22.526Z,16.90
2018-04-24T22:28:52.363Z,16.90
2018-04-24T22:31:21.676Z,16.90
2018-04-24T22:33:50.532Z,17.00
2018-04-24T22:36:20.184Z,17.00
2018-04-24T22:38:48.994Z,17.10
2018-04-24T22:41:17.790Z,17.00
2018-04-24T22:43:46.287Z,16.80
2018-04-24T22:46:14.648Z,16.80
2018-04-24T22:48:42.953Z,16.70
2018-04-24T22:51:11.235Z,16.70
2018-04-24T22:53:40.320Z,16.70
2018-04-24T22:56:08.632Z,16.70
2018-04-24T22:58:37.165Z,16.70
2018-04-24T23:01:05.449Z,16.70
2018-04-24T23:03:34.517Z,16.90
2018-04-24T23:06:02.825Z,16.90
2018-04-24T23:08:31.117Z,16.80
2018-04-24T23:11:12.478Z,16.80
2018-04-24T23:13:52.584Z,16.80
2018-04-24T23:16:33.059Z,16.70
2018-04-24T23:19:13.243Z,16.80
2018-04-24T23:21:41.878Z,16.70
2018-04-24T23:24:10.171Z,16.70
2018-04-24T23:26:38.461Z,16.50
2018-04-24T23:29:06.775Z,16.30
2018-04-24T23:31:35.852Z,16.30
2018-04-24T23:34:05.782Z,16.30
2018-04-24T23:36:34.821Z,16.40
2018-04-24T23:39:03.120Z,16.30
2018-04-24T23:41:31.429Z,16.30
2018-04-24T23:44:00.535Z,16.20
2018-04-24T23:46:30.257Z,16.20
2018-04-24T23:48:58.568Z,16.20
2018-04-24T23:51:26.871Z,16.20
2018-04-24T23:53:55.175Z,16.20
2018-04-24T23:56:23.473Z,16.30
2018-04-24T23:58:51.787Z,16.40
